createdAt,value
2024-05-09T00:01:54.468Z,82.51
2024-05-09T00:05:37.730Z,82.65
2024-05-09T00:09:13.458Z,82.50
2024-05-09T00:12:42.559Z,83.73
2024-05-09T00:16:11.452Z,82.47
2024-05-09T00:19:40.595Z,82.82
2024-05-09T00:23:03.300Z,83.00
2024-05-09T00:26:39.488Z,83.40
2024-05-09T00:30:03.894Z,83.68
2024-05-09T00:33:39.591Z,84.03
2024-05-09T00:37:02.008Z,84.36
2024-05-09T00:40:40.446Z,84.62
2024-05-09T00:44:05.105Z,84.51
2024-05-09T00:47:40.710Z,83.96
2024-05-09T00:51:04.117Z,84.60
2024-05-09T00:54:39.455Z,84.63
2024-05-09T00:58:24.487Z,84.63
2024-05-09T01:02:07.522Z,85.02
2024-05-09T01:05:51.514Z,84.26
2024-05-09T01:09:27.471Z,84.36
2024-05-09T01:12:56.581Z,84.89
2024-05-09T01:16:25.474Z,84.66
2024-05-09T01:19:54.600Z,84.54
2024-05-09T01:23:17.038Z,84.78
2024-05-09T01:26:52.457Z,84.22
2024-05-09T01:30:20.966Z,84.58
2024-05-09T01:34:06.493Z,84.70
2024-05-09T01:37:36.023Z,84.74
2024-05-09T01:41:11.500Z,84.82
2024-05-09T01:44:34.010Z,84.44
2024-05-09T01:48:10.286Z,84.28
2024-05-09T01:51:33.020Z,84.51
2024-05-09T01:55:08.511Z,84.69
2024-05-09T01:58:51.541Z,84.65
2024-05-09T02:02:34.558Z,83.79
2024-05-09T02:06:17.580Z,84.40
2024-05-09T02:09:56.490Z,83.33
2024-05-09T02:13:25.596Z,82.05
2024-05-09T02:16:54.545Z,82.01
2024-05-09T02:20:30.706Z,80.95
2024-05-09T02:24:04.485Z,81.16
2024-05-09T02:27:33.658Z,80.73
2024-05-09T02:31:02.586Z,80.74
2024-05-09T02:34:31.699Z,80.75
2024-05-09T02:38:00.754Z,80.99
2024-05-09T02:41:36.531Z,81.08
2024-05-09T02:44:58.983Z,81.13
2024-05-09T02:48:34.604Z,80.15
2024-05-09T02:51:57.004Z,79.94
2024-05-09T02:55:32.674Z,80.51
2024-05-09T02:59:15.522Z,80.96
2024-05-09T03:02:58.591Z,81.55
2024-05-09T03:06:41.528Z,81.61
2024-05-09T03:10:22.436Z,81.97
2024-05-09T03:13:59.958Z,81.79
2024-05-09T03:17:29.683Z,82.63
2024-05-09T03:20:58.672Z,82.46
2024-05-09T03:24:27.513Z,82.37
2024-05-09T03:27:56.689Z,82.16
2024-05-09T03:31:25.506Z,81.39
2024-05-09T03:34:54.667Z,81.44
2024-05-09T03:38:23.567Z,81.35
2024-05-09T03:41:59.544Z,81.44
2024-05-09T03:45:22.026Z,81.48
2024-05-09T03:49:04.576Z,80.97
2024-05-09T03:52:47.549Z,80.32
2024-05-09T03:56:30.685Z,79.53
2024-05-09T04:00:18.267Z,79.08
2024-05-09T04:04:08.511Z,78.28
2024-05-09T04:07:51.552Z,78.08
2024-05-09T04:11:27.563Z,78.99
2024-05-09T04:14:56.744Z,79.44
2024-05-09T04:18:25.619Z,79.89
2024-05-09T04:22:08.533Z,79.35
2024-05-09T04:25:49.618Z,78.36
2024-05-09T04:29:18.730Z,77.61
2024-05-09T04:32:47.746Z,76.61
2024-05-09T04:36:16.700Z,75.24
2024-05-09T04:39:45.535Z,74.43
2024-05-09T04:43:27.515Z,74.04
2024-05-09T04:46:50.246Z,73.09
2024-05-09T04:50:33.882Z,74.04
2024-05-09T04:54:00.231Z,72.79
2024-05-09T04:57:35.566Z,73.19
2024-05-09T05:01:18.583Z,71.79
2024-05-09T05:05:01.637Z,71.39
2024-05-09T05:08:44.621Z,70.57
2024-05-09T05:12:39.576Z,71.21
2024-05-09T05:16:08.664Z,71.51
2024-05-09T05:19:37.656Z,70.58
2024-05-09T05:23:06.673Z,70.65
2024-05-09T05:26:42.677Z,69.55
2024-05-09T05:30:29.307Z,69.47
2024-05-09T05:34:16.554Z,69.90
2024-05-09T05:37:59.586Z,70.09
2024-05-09T05:41:35.633Z,69.81
2024-05-09T05:45:06.712Z,70.05
2024-05-09T05:48:36.618Z,70.06
2024-05-09T05:52:05.680Z,69.06
2024-05-09T05:55:41.551Z,68.77
2024-05-09T05:59:24.645Z,68.12
2024-05-09T06:03:07.917Z,68.27
2024-05-09T06:06:50.576Z,68.66
2024-05-09T06:10:26.431Z,68.22
2024-05-09T06:14:03.572Z,67.95
2024-05-09T06:17:25.992Z,67.79
2024-05-09T06:20:48.100Z,68.65
2024-05-09T06:24:16.598Z,68.37
2024-05-09T06:27:45.559Z,68.18
2024-05-09T06:31:28.603Z,68.08
2024-05-09T06:35:11.660Z,67.34
2024-05-09T06:38:54.558Z,67.96
2024-05-09T06:42:30.595Z,66.28
2024-05-09T06:46:00.673Z,65.89
2024-05-09T06:49:30.699Z,65.85
2024-05-09T06:53:12.633Z,64.89
2024-05-09T06:57:00.612Z,64.47
2024-05-09T07:00:43.777Z,63.98
2024-05-09T07:04:31.681Z,63.86
2024-05-09T07:08:19.027Z,64.23
2024-05-09T07:11:54.711Z,63.12
2024-05-09T07:15:23.730Z,63.97
2024-05-09T07:18:54.943Z,64.31
2024-05-09T07:22:24.392Z,65.41
2024-05-09T07:25:46.335Z,66.05
2024-05-09T07:29:22.704Z,66.00
2024-05-09T07:32:45.590Z,65.77
2024-05-09T07:36:22.663Z,66.20
2024-05-09T07:39:46.081Z,66.14
2024-05-09T07:43:21.608Z,65.39
2024-05-09T07:48:14.332Z,64.96
2024-05-09T07:55:03.823Z,61.82
2024-05-09T07:58:52.166Z,62.53
2024-05-09T08:02:39.676Z,61.97
2024-05-09T08:06:27.738Z,60.63
2024-05-09T08:10:21.834Z,59.51
2024-05-09T08:14:05.606Z,59.08
2024-05-09T08:17:32.853Z,59.60
2024-05-09T08:21:13.617Z,59.49
2024-05-09T08:24:40.793Z,59.88
2024-05-09T08:28:28.714Z,60.75
2024-05-09T08:32:19.653Z,58.95
2024-05-09T08:36:07.620Z,59.85
2024-05-09T08:39:55.766Z,60.13
2024-05-09T08:43:39.018Z,60.06
2024-05-09T08:47:16.772Z,59.90
2024-05-09T08:50:50.770Z,60.44
2024-05-09T08:54:24.726Z,60.18
2024-05-09T08:58:05.711Z,59.68
2024-05-09T09:01:53.681Z,59.81
2024-05-09T09:05:43.726Z,58.06
2024-05-09T09:09:11.629Z,57.25
2024-05-09T09:13:05.333Z,58.05
2024-05-09T09:16:40.727Z,59.64
2024-05-09T09:20:19.367Z,59.23
2024-05-09T09:24:14.634Z,62.35
2024-05-09T09:27:42.693Z,62.68
2024-05-09T09:31:31.819Z,65.00
2024-05-09T09:35:19.647Z,63.68
2024-05-09T09:39:08.641Z,63.57
2024-05-09T09:42:54.676Z,64.56
2024-05-09T09:46:30.853Z,62.18
2024-05-09T09:49:46.649Z,60.51
2024-05-09T09:53:17.661Z,60.79
2024-05-09T09:57:07.654Z,60.70
2024-05-09T10:00:39.807Z,59.25
2024-05-09T10:04:07.708Z,60.37
2024-05-09T10:07:55.643Z,56.90
2024-05-09T10:11:49.223Z,57.78
2024-05-09T10:15:15.642Z,56.11
2024-05-09T10:18:44.892Z,56.51
2024-05-09T10:22:33.638Z,56.76
2024-05-09T10:25:42.762Z,56.92
2024-05-09T10:29:31.708Z,56.79
2024-05-09T10:33:23.717Z,54.83
2024-05-09T10:37:12.699Z,52.37
2024-05-09T10:40:43.843Z,53.51
2024-05-09T10:44:26.661Z,50.21
2024-05-09T10:47:42.918Z,51.16
2024-05-09T10:51:23.664Z,50.69
2024-05-09T10:55:05.785Z,48.63
2024-05-09T10:58:47.668Z,49.37
2024-05-09T11:02:35.780Z,48.62
2024-05-09T11:06:23.692Z,49.04
2024-05-09T11:09:55.703Z,48.87
2024-05-09T11:13:16.698Z,48.69
2024-05-09T11:16:30.852Z,46.04
2024-05-09T11:19:45.692Z,48.56
2024-05-09T11:23:37.702Z,48.98
2024-05-09T11:27:19.882Z,47.74
2024-05-09T11:30:54.689Z,48.20
2024-05-09T11:34:23.815Z,47.36
2024-05-09T11:38:08.681Z,47.33
2024-05-09T11:41:54.726Z,48.51
2024-05-09T11:45:35.768Z,45.87
2024-05-09T11:49:05.093Z,45.54
2024-05-09T11:52:33.775Z,46.70
2024-05-09T11:56:17.689Z,47.57
2024-05-09T11:59:53.688Z,45.15
2024-05-09T12:03:25.507Z,44.84
2024-05-09T12:06:54.806Z,46.60
2024-05-09T12:10:37.852Z,44.22
2024-05-09T12:14:13.716Z,43.42
2024-05-09T12:17:45.709Z,42.44
2024-05-09T12:21:16.787Z,41.49
2024-05-09T12:25:09.763Z,41.84
2024-05-09T12:28:57.706Z,42.00
2024-05-09T12:32:45.873Z,42.39
2024-05-09T12:36:34.777Z,43.04
2024-05-09T12:40:34.704Z,43.00
2024-05-09T12:44:22.728Z,46.46
2024-05-09T12:47:57.976Z,46.80
2024-05-09T12:51:24.712Z,46.30
2024-05-09T12:55:06.842Z,46.08
2024-05-09T12:59:00.485Z,45.36
2024-05-09T13:02:43.757Z,45.25
2024-05-09T13:06:32.745Z,44.97
2024-05-09T13:10:25.583Z,44.19
2024-05-09T13:14:12.711Z,45.32
2024-05-09T13:18:03.698Z,45.15
2024-05-09T13:21:46.746Z,45.91
2024-05-09T13:25:30.757Z,42.83
2024-05-09T13:29:13.737Z,44.19
2024-05-09T13:32:56.783Z,44.52
2024-05-09T13:36:39.838Z,41.21
2024-05-09T13:40:30.022Z,38.11
2024-05-09T13:44:09.786Z,35.62
2024-05-09T13:47:39.115Z,34.55
2024-05-09T13:51:07.737Z,33.18
2024-05-09T13:54:50.769Z,32.52
2024-05-09T13:58:33.756Z,29.84
2024-05-09T14:02:17.117Z,31.19
2024-05-09T14:05:59.894Z,30.57
2024-05-09T14:09:47.778Z,29.56
2024-05-09T14:13:17.533Z,29.23
2024-05-09T14:17:03.848Z,30.28
2024-05-09T14:20:43.765Z,29.46
2024-05-09T14:24:25.771Z,29.29
2024-05-09T14:28:04.833Z,28.50
2024-05-09T14:31:40.922Z,28.92
2024-05-09T14:35:02.884Z,29.15
2024-05-09T14:38:43.791Z,28.22
2024-05-09T14:42:14.867Z,28.84
2024-05-09T14:45:58.798Z,28.99
2024-05-09T14:49:27.981Z,28.98
2024-05-09T14:53:01.783Z,27.06
2024-05-09T14:56:55.801Z,26.40
2024-05-09T15:00:37.994Z,25.16
2024-05-09T15:04:08.026Z,26.29
2024-05-09T15:07:36.762Z,25.63
2024-05-09T15:11:05.985Z,26.08
2024-05-09T15:14:39.793Z,26.51
2024-05-09T15:18:12.073Z,24.58
2024-05-09T15:21:38.782Z,24.55
2024-05-09T15:25:18.081Z,25.14
2024-05-09T15:28:57.807Z,26.00
2024-05-09T15:32:40.917Z,25.67
2024-05-09T15:36:19.790Z,25.55
2024-05-09T15:40:04.171Z,24.66
2024-05-09T15:43:33.456Z,24.16
2024-05-09T15:47:08.774Z,23.89
2024-05-09T15:50:51.852Z,23.29
2024-05-09T15:54:34.803Z,21.77
2024-05-09T15:58:13.812Z,22.59
2024-05-09T16:01:51.910Z,20.95
2024-05-09T16:05:35.008Z,20.59
2024-05-09T16:09:17.823Z,18.98
2024-05-09T16:12:57.838Z,19.99
2024-05-09T16:16:33.855Z,19.35
2024-05-09T16:20:06.812Z,19.53
2024-05-09T16:23:37.826Z,19.82
2024-05-09T16:27:06.966Z,20.67
2024-05-09T16:30:36.526Z,19.79
2024-05-09T16:34:16.009Z,20.19
2024-05-09T16:37:59.811Z,21.36
2024-05-09T16:41:42.832Z,22.25
2024-05-09T16:45:20.849Z,24.58
2024-05-09T16:49:00.885Z,25.96
2024-05-09T16:52:38.833Z,27.56
2024-05-09T16:56:18.908Z,28.81
2024-05-09T17:00:01.837Z,29.37
2024-05-09T17:03:45.058Z,33.53
2024-05-09T17:07:27.864Z,33.94
2024-05-09T17:11:10.973Z,37.45
2024-05-09T17:14:46.844Z,39.79
2024-05-09T17:18:16.079Z,41.87
2024-05-09T17:21:45.935Z,43.27
2024-05-09T17:25:15.067Z,44.55
2024-05-09T17:28:50.848Z,46.43
2024-05-09T17:32:26.998Z,46.89
2024-05-09T17:35:55.959Z,48.17
2024-05-09T17:39:24.876Z,48.31
2024-05-09T17:43:09.651Z,50.00
2024-05-09T17:46:45.853Z,51.82
2024-05-09T17:50:21.324Z,52.56
2024-05-09T17:53:55.855Z,53.03
2024-05-09T17:57:24.963Z,54.85
2024-05-09T18:00:53.959Z,56.46
2024-05-09T18:04:24.094Z,57.56
2024-05-09T18:07:52.863Z,58.97
2024-05-09T18:11:37.904Z,60.17
2024-05-09T18:15:13.913Z,61.19
2024-05-09T18:18:36.210Z,61.99
2024-05-09T18:22:11.922Z,62.26
2024-05-09T18:25:34.025Z,62.34
2024-05-09T18:29:19.957Z,63.28
2024-05-09T18:32:56.994Z,63.00
2024-05-09T18:36:25.950Z,63.19
2024-05-09T18:39:54.912Z,63.47
2024-05-09T18:43:44.683Z,63.67
2024-05-09T18:47:21.024Z,64.56
2024-05-09T18:50:50.115Z,65.56
2024-05-09T18:54:18.883Z,65.46
2024-05-09T18:57:48.042Z,66.34
2024-05-09T19:01:17.064Z,66.90
2024-05-09T19:04:47.282Z,68.40
2024-05-09T19:08:16.028Z,68.67
2024-05-09T19:11:45.032Z,69.34
2024-05-09T19:15:13.909Z,69.82
2024-05-09T19:18:50.096Z,70.14
2024-05-09T19:22:33.934Z,70.28
2024-05-09T19:26:16.965Z,70.38
2024-05-09T19:29:59.912Z,70.91
2024-05-09T19:33:37.067Z,71.84
2024-05-09T19:37:06.110Z,72.32
2024-05-09T19:40:35.783Z,72.73
2024-05-09T19:44:05.014Z,72.96
2024-05-09T19:47:34.052Z,73.54
2024-05-09T19:51:03.125Z,73.10
2024-05-09T19:54:31.996Z,73.66
2024-05-09T19:58:16.041Z,74.10
2024-05-09T20:01:52.172Z,73.75
2024-05-09T20:05:21.192Z,74.67
2024-05-09T20:08:49.892Z,75.16
2024-05-09T20:12:18.998Z,75.14
2024-05-09T20:15:47.964Z,75.46
2024-05-09T20:19:17.240Z,75.95
2024-05-09T20:22:52.912Z,75.77
2024-05-09T20:26:22.018Z,75.77
2024-05-09T20:29:57.918Z,75.50
2024-05-09T20:33:26.952Z,75.34
2024-05-09T20:36:56.107Z,76.14
2024-05-09T20:40:30.635Z,76.44
2024-05-09T20:44:02.463Z,76.83
2024-05-09T20:47:31.035Z,76.82
2024-05-09T20:51:00.040Z,76.75
2024-05-09T20:54:28.941Z,77.33
2024-05-09T20:57:58.112Z,77.40
2024-05-09T21:01:27.034Z,77.50
2024-05-09T21:04:56.111Z,76.79
2024-05-09T21:08:25.836Z,77.02
2024-05-09T21:11:56.062Z,77.82
2024-05-09T21:15:25.000Z,77.71
2024-05-09T21:19:00.997Z,77.98
2024-05-09T21:22:43.912Z,78.27
2024-05-09T21:26:28.908Z,78.25
2024-05-09T21:30:18.679Z,78.97
2024-05-09T21:34:03.013Z,78.83
2024-05-09T21:37:32.033Z,78.83
2024-05-09T21:41:00.962Z,78.74
2024-05-09T21:44:43.934Z,78.97
2024-05-09T21:48:22.047Z,79.43
2024-05-09T21:52:05.071Z,79.58
2024-05-09T21:55:47.930Z,80.08
2024-05-09T21:59:30.946Z,79.85
2024-05-09T22:03:12.461Z,80.01
2024-05-09T22:06:53.971Z,79.55
2024-05-09T22:10:34.683Z,79.73
2024-05-09T22:14:20.936Z,79.95
2024-05-09T22:18:01.050Z,80.00
2024-05-09T22:21:39.952Z,79.90
2024-05-09T22:25:23.003Z,80.53
2024-05-09T22:29:05.939Z,80.52
2024-05-09T22:32:46.055Z,80.66
2024-05-09T22:36:23.929Z,80.28
2024-05-09T22:40:04.655Z,80.51
2024-05-09T22:43:46.962Z,80.81
2024-05-09T22:47:25.018Z,80.76
2024-05-09T22:51:07.920Z,80.91
2024-05-09T22:54:50.961Z,80.97
2024-05-09T22:58:32.998Z,81.57
2024-05-09T23:02:12.024Z,81.30
2024-05-09T23:05:53.948Z,81.25
2024-05-09T23:09:32.999Z,81.57
2024-05-09T23:13:16.157Z,82.29
2024-05-09T23:16:56.996Z,82.41
2024-05-09T23:20:39.034Z,82.49
2024-05-09T23:24:18.959Z,82.15
2024-05-09T23:27:57.141Z,82.04
2024-05-09T23:31:39.946Z,82.10
2024-05-09T23:35:15.948Z,82.33
2024-05-09T23:38:54.965Z,82.05
2024-05-09T23:42:33.970Z,82.20
2024-05-09T23:46:16.026Z,82.67
2024-05-09T23:49:59.958Z,82.40
2024-05-09T23:53:38.938Z,82.92
2024-05-09T23:57:17.980Z,82.53
